createdAt,value
2023-01-05T00:00:52.409Z,38.95
2023-01-05T00:05:45.619Z,41.92
2023-01-05T00:10:56.523Z,48.42
2023-01-05T00:16:23.385Z,47.53
2023-01-05T00:21:34.363Z,47.53
2023-01-05T00:31:21.828Z,54.13
2023-01-05T00:36:15.071Z,52.20
2023-01-05T00:41:08.194Z,56.72
2023-01-05T00:46:01.429Z,57.05
2023-01-05T00:50:56.061Z,52.17
2023-01-05T00:55:57.531Z,47.63
2023-01-05T01:00:50.801Z,52.90
2023-01-05T01:05:43.962Z,51.35
2023-01-05T01:10:40.853Z,48.72
2023-01-05T01:15:34.000Z,43.83
2023-01-05T01:20:27.141Z,44.92
2023-01-05T01:25:20.207Z,45.87
2023-01-05T01:30:15.339Z,47.78
2023-01-05T01:35:09.058Z,47.22
2023-01-05T01:40:02.504Z,47.73
2023-01-05T01:44:59.604Z,49.10
2023-01-05T01:50:01.550Z,48.03
2023-01-05T01:54:55.766Z,46.72
2023-01-05T01:59:49.263Z,45.30
2023-01-05T02:04:45.509Z,42.40
2023-01-05T02:09:40.445Z,46.38
2023-01-05T02:14:41.820Z,46.90
2023-01-05T02:20:02.969Z,51.40
2023-01-05T02:25:29.379Z,50.95
2023-01-05T02:30:54.226Z,49.05
2023-01-05T02:35:58.470Z,53.28
2023-01-05T02:40:57.283Z,54.47
2023-01-05T02:45:51.414Z,50.10
2023-01-05T02:50:49.191Z,46.97
2023-01-05T02:55:47.881Z,48.10
2023-01-05T03:00:45.674Z,49.85
2023-01-05T03:05:42.985Z,48.85
2023-01-05T03:11:00.855Z,51.78
2023-01-05T03:16:02.202Z,50.40
2023-01-05T03:20:56.901Z,55.33
2023-01-05T03:26:09.760Z,53.78
2023-01-05T03:31:28.853Z,49.10
2023-01-05T03:36:25.775Z,46.92
2023-01-05T03:41:21.148Z,49.22
2023-01-05T03:46:21.163Z,46.50
2023-01-05T03:56:09.971Z,42.05
2023-01-05T04:01:03.416Z,43.90
2023-01-05T04:05:58.521Z,42.42
2023-01-05T04:10:54.455Z,43.42
2023-01-05T04:15:47.929Z,42.58
2023-01-05T04:20:42.156Z,42.05
2023-01-05T04:25:36.770Z,43.78
2023-01-05T04:30:41.028Z,42.20
2023-01-05T04:35:34.648Z,46.28
2023-01-05T04:40:48.741Z,41.53
2023-01-05T04:45:43.523Z,47.90
2023-01-05T04:50:36.804Z,41.55
2023-01-05T04:55:32.945Z,46.50
2023-01-05T05:00:26.339Z,46.58
2023-01-05T05:05:22.462Z,52.92
2023-01-05T05:10:19.187Z,48.22
2023-01-05T05:15:14.401Z,47.95
2023-01-05T05:20:13.041Z,47.80
2023-01-05T05:25:09.088Z,49.40
2023-01-05T05:30:07.195Z,46.20
2023-01-05T05:35:00.343Z,46.33
2023-01-05T05:39:53.602Z,49.35
2023-01-05T05:44:48.276Z,50.85
2023-01-05T05:49:41.428Z,42.53
2023-01-05T05:54:34.544Z,45.50
2023-01-05T05:59:27.700Z,44.35
2023-01-05T06:04:22.169Z,42.22
2023-01-05T06:09:15.491Z,41.58
2023-01-05T06:14:08.670Z,42.08
2023-01-05T06:19:01.950Z,43.67
2023-01-05T06:23:56.658Z,40.80
2023-01-05T06:28:49.784Z,43.45
2023-01-05T06:33:42.903Z,41.40
2023-01-05T06:38:37.354Z,46.70
2023-01-05T06:43:32.202Z,47.53
2023-01-05T06:48:25.321Z,45.53
2023-01-05T06:53:18.680Z,45.25
2023-01-05T06:58:11.960Z,53.90
2023-01-05T07:03:07.572Z,62.05
2023-01-05T07:08:00.753Z,52.60
2023-01-05T07:12:53.873Z,45.38
2023-01-05T07:17:47.120Z,49.33
2023-01-05T07:22:41.727Z,46.65
2023-01-05T07:27:34.874Z,56.58
2023-01-05T07:32:27.989Z,55.75
2023-01-05T07:37:21.157Z,57.67
2023-01-05T07:42:15.698Z,51.20
2023-01-05T07:47:09.449Z,52.95
2023-01-05T07:52:02.725Z,47.47
2023-01-05T07:56:55.827Z,45.22
2023-01-05T08:01:50.705Z,43.72
2023-01-05T08:06:43.934Z,45.42
2023-01-05T08:11:37.142Z,44.15
2023-01-05T08:16:32.057Z,40.35
2023-01-05T08:21:26.823Z,38.33
2023-01-05T08:26:22.615Z,39.85
2023-01-05T08:31:18.305Z,37.53
2023-01-05T08:36:13.707Z,38.40
2023-01-05T08:41:08.332Z,37.78
2023-01-05T08:46:01.636Z,36.55
2023-01-05T08:50:54.986Z,37.05
2023-01-05T08:55:50.369Z,37.75
2023-01-05T09:00:45.023Z,35.85
2023-01-05T09:05:38.310Z,38.88
2023-01-05T09:10:31.686Z,34.03
2023-01-05T09:15:24.865Z,37.05
2023-01-05T09:20:22.642Z,35.72
2023-01-05T09:25:15.991Z,37.75
2023-01-05T09:30:10.568Z,33.95
2023-01-05T09:35:03.795Z,43.92
2023-01-05T09:39:58.295Z,42.67
2023-01-05T09:44:59.181Z,35.85
2023-01-05T09:49:53.509Z,38.05
2023-01-05T09:54:46.790Z,38.50
2023-01-05T09:59:44.937Z,40.03
2023-01-05T10:04:38.277Z,36.65
2023-01-05T10:09:34.718Z,40.42
2023-01-05T10:14:33.670Z,47.35
2023-01-05T10:19:30.253Z,39.00
2023-01-05T10:24:33.995Z,42.95
2023-01-05T10:29:34.151Z,40.95
2023-01-05T10:34:43.807Z,32.47
2023-01-05T10:40:12.842Z,35.97
2023-01-05T10:45:10.831Z,32.83
2023-01-05T10:50:39.071Z,24.45
2023-01-05T10:55:35.184Z,29.50
2023-01-05T11:00:42.067Z,28.33
2023-01-05T11:05:39.773Z,28.80
2023-01-05T11:10:35.677Z,28.90
2023-01-05T11:15:29.848Z,25.83
2023-01-05T11:20:23.077Z,22.55
2023-01-05T11:25:28.020Z,27.58
2023-01-05T11:30:24.752Z,28.13
2023-01-05T11:35:21.083Z,24.10
2023-01-05T11:40:18.638Z,23.00
2023-01-05T11:45:27.161Z,23.08
2023-01-05T11:50:25.203Z,22.25
2023-01-05T11:55:31.931Z,24.08
2023-01-05T12:00:28.995Z,21.38
2023-01-05T12:05:29.210Z,19.38
2023-01-05T12:10:47.789Z,17.10
2023-01-05T12:16:02.214Z,18.00
2023-01-05T12:20:58.458Z,18.67
2023-01-05T12:26:04.490Z,15.48
2023-01-05T12:36:33.960Z,15.48
2023-01-05T12:42:02.476Z,15.68
2023-01-05T12:47:13.762Z,13.13
2023-01-05T12:52:14.585Z,12.07
2023-01-05T12:57:15.162Z,13.27
2023-01-05T13:02:28.024Z,11.80
2023-01-05T13:07:26.657Z,17.13
2023-01-05T13:12:20.486Z,18.58
2023-01-05T13:17:26.519Z,14.65
2023-01-05T13:22:24.304Z,13.45
2023-01-05T13:27:18.499Z,15.63
2023-01-05T13:32:48.289Z,12.40
2023-01-05T13:38:03.678Z,9.90
2023-01-05T13:43:19.693Z,11.73
2023-01-05T13:48:44.451Z,12.30
2023-01-05T13:53:41.960Z,9.48
2023-01-05T13:58:39.991Z,12.93
2023-01-05T14:03:39.003Z,16.27
2023-01-05T14:08:35.215Z,12.45
2023-01-05T14:13:44.341Z,12.02
2023-01-05T14:18:54.271Z,10.02
2023-01-05T14:24:02.980Z,14.50
2023-01-05T14:28:56.372Z,14.60
2023-01-05T14:33:53.063Z,17.50
2023-01-05T14:38:49.787Z,20.02
2023-01-05T14:43:43.177Z,16.25
2023-01-05T14:48:39.950Z,12.90
2023-01-05T14:53:53.505Z,15.05
2023-01-05T15:04:23.271Z,15.75
2023-01-05T15:09:31.362Z,15.18
2023-01-05T15:14:52.467Z,15.98
2023-01-05T15:20:02.127Z,13.80
2023-01-05T15:25:18.219Z,12.63
2023-01-05T15:30:50.619Z,13.38
2023-01-05T15:35:51.729Z,16.52
2023-01-05T15:40:47.040Z,24.35
2023-01-05T15:45:44.531Z,20.30
2023-01-05T15:50:45.561Z,23.23
2023-01-05T15:55:46.831Z,25.02
2023-01-05T16:00:41.962Z,28.00
2023-01-05T16:05:36.029Z,25.30
2023-01-05T16:10:36.413Z,25.40
2023-01-05T16:20:27.365Z,21.40
2023-01-05T16:25:23.146Z,11.93
2023-01-05T16:30:28.067Z,14.75
2023-01-05T16:35:25.869Z,13.63
2023-01-05T16:40:22.099Z,15.00
2023-01-05T16:45:26.422Z,11.45
2023-01-05T16:50:56.105Z,13.05
2023-01-05T16:55:53.479Z,10.30
2023-01-05T17:00:47.303Z,10.18
2023-01-05T17:05:40.861Z,9.90
2023-01-05T17:10:36.318Z,11.63
2023-01-05T17:15:32.973Z,12.85
2023-01-05T17:20:43.094Z,11.68
2023-01-05T17:25:41.783Z,12.45
2023-01-05T17:30:39.075Z,14.38
2023-01-05T17:35:32.768Z,21.55
2023-01-05T17:40:32.102Z,32.78
2023-01-05T17:45:34.928Z,24.88
2023-01-05T17:50:36.191Z,20.60
2023-01-05T17:55:30.912Z,20.65
2023-01-05T18:00:26.741Z,21.83
2023-01-05T18:05:23.637Z,20.83
2023-01-05T18:10:19.463Z,18.98
2023-01-05T18:15:16.682Z,16.80
2023-01-05T18:20:20.093Z,21.15
2023-01-05T18:25:21.671Z,16.17
2023-01-05T18:35:12.131Z,17.65
2023-01-05T18:40:14.607Z,16.88
2023-01-05T18:45:32.023Z,12.48
2023-01-05T18:50:29.151Z,42.42
2023-01-05T18:55:23.935Z,13.85
2023-01-05T19:00:19.518Z,18.15
2023-01-05T19:05:15.692Z,13.15
2023-01-05T19:10:10.204Z,11.20
2023-01-05T19:15:03.767Z,13.40
2023-01-05T19:19:59.993Z,10.75
2023-01-05T19:24:53.220Z,10.15
2023-01-05T19:29:46.568Z,9.10
2023-01-05T19:34:42.429Z,12.68
2023-01-05T19:39:39.297Z,12.05
2023-01-05T19:44:33.865Z,14.38
2023-01-05T19:49:28.815Z,13.05
2023-01-05T19:54:24.131Z,13.32
2023-01-05T19:59:21.673Z,11.73
2023-01-05T20:04:15.110Z,11.13
2023-01-05T20:09:10.858Z,13.10
2023-01-05T20:14:05.501Z,12.43
2023-01-05T20:19:03.886Z,12.85
2023-01-05T20:23:57.297Z,14.35
2023-01-05T20:28:52.274Z,13.43
2023-01-05T20:33:50.948Z,13.95
2023-01-05T20:38:45.754Z,16.27
2023-01-05T20:43:44.794Z,13.80
2023-01-05T20:48:38.227Z,17.35
2023-01-05T20:53:33.668Z,17.42
2023-01-05T20:58:28.353Z,13.65
2023-01-05T21:03:26.901Z,13.38
2023-01-05T21:08:22.436Z,15.40
2023-01-05T21:13:31.774Z,15.02
2023-01-05T21:18:35.786Z,14.90
2023-01-05T21:23:32.560Z,13.60
2023-01-05T21:28:29.119Z,13.35
2023-01-05T21:33:22.663Z,13.48
2023-01-05T21:38:19.164Z,15.23
2023-01-05T21:43:17.669Z,13.98
2023-01-05T21:48:20.229Z,12.95
2023-01-05T21:53:34.796Z,16.52
2023-01-05T21:58:31.331Z,12.07
2023-01-05T22:03:24.633Z,10.07
2023-01-05T22:08:19.875Z,13.77
2023-01-05T22:13:17.247Z,14.68
2023-01-05T22:18:12.642Z,12.73
2023-01-05T22:23:10.010Z,14.50
2023-01-05T22:28:08.057Z,13.70
2023-01-05T22:33:01.557Z,13.88
2023-01-05T22:37:55.072Z,14.25
2023-01-05T22:42:48.593Z,14.50
2023-01-05T22:47:43.401Z,13.18
2023-01-05T22:52:37.942Z,12.38
2023-01-05T22:57:31.396Z,14.75
2023-01-05T23:02:24.702Z,15.13
2023-01-05T23:07:20.970Z,16.02
2023-01-05T23:12:14.588Z,15.65
2023-01-05T23:17:09.599Z,13.90
2023-01-05T23:22:02.871Z,13.88
2023-01-05T23:26:57.523Z,14.57
2023-01-05T23:31:53.186Z,13.73
2023-01-05T23:36:46.864Z,11.93
2023-01-05T23:41:40.040Z,15.15
2023-01-05T23:46:35.129Z,12.00
2023-01-05T23:51:28.436Z,12.63
2023-01-05T23:56:26.306Z,13.60
